Terminal Aerodrome Forecast
Issued by NWS North Platte, NE

Home | Current Version | Previous Version | Text Only | Print | Product List | Glossary On
Versions: 1 2 3 4 5 6 7 8 9 10 11 12 13
000
FTUS43 KLBF 051700
TAFVTN
TAF
KVTN 051729Z 0518/0618 20011KT P6SM SCT250
     FM052300 35015G24KT P6SM TS OVC050CB
     FM060400 36018G28KT P6SM OVC050 PROB30 0604/0610 -TSRA BKN020CB
     FM061000 36014G21KT P6SM OVC030=

USA.gov is the U.S. government's official web portal to all federal, state and local government web resources and services.